Time,TemperatureF,DewpointF,PressureIn,WindDirection,WindDirectionDegrees,WindSpeedMPH,WindSpeedGustMPH,Humidity,HourlyPrecipIn,Conditions,Clouds,dailyrainin,SoftwareType,DateUTC
2013-05-26 00:00:00,74.5,64.9,29.74,East,100,0.0,5.0,72,0.00,CLR,CLR,0.00,WeatherDisplay:10.37,2013-05-26 04:00:00,
2013-05-26 00:30:00,73.6,64.8,29.74,ESE,116,0.0,5.0,74,0.00,CLR,CLR,0.00,WeatherDisplay:10.37,2013-05-26 04:30:00,
2013-05-26 01:00:00,73.0,65.0,29.75,ESE,116,2.0,5.0,76,0.00,CLR,CLR,0.00,WeatherDisplay:10.37,2013-05-26 05:00:00,
2013-05-26 01:30:00,72.3,64.7,29.75,ESE,122,5.0,5.0,77,0.00,CLR,CLR,0.00,WeatherDisplay:10.37,2013-05-26 05:30:00,
2013-05-26 02:00:00,71.4,64.6,29.75,ESE,102,0.0,3.0,79,0.00,CLR,CLR,0.00,WeatherDisplay:10.37,2013-05-26 06:00:00,
2013-05-26 02:30:00,70.9,64.4,29.73,East,101,0.0,4.0,80,0.00,CLR,CLR,0.00,WeatherDisplay:10.37,2013-05-26 06:30:00,
2013-05-26 03:00:00,70.3,64.2,29.73,East,94,0.0,5.0,81,0.00,CLR,CLR,0.00,WeatherDisplay:10.37,2013-05-26 07:00:00,
2013-05-26 03:30:00,69.8,64.1,29.73,East,83,1.0,4.0,82,0.00,CLR,CLR,0.00,WeatherDisplay:10.37,2013-05-26 07:30:00,
2013-05-26 04:00:00,69.4,63.7,29.73,ENE,72,0.0,4.0,82,0.00,CLR,CLR,0.00,WeatherDisplay:10.37,2013-05-26 08:00:00,
2013-05-26 04:30:00,68.7,63.3,29.72,East,84,0.0,2.0,83,0.00,CLR,CLR,0.00,WeatherDisplay:10.37,2013-05-26 08:30:00,
2013-05-26 05:00:00,68.4,63.0,29.73,East,96,0.0,2.0,83,0.00,CLR,CLR,0.00,WeatherDisplay:10.37,2013-05-26 09:00:00,
2013-05-26 05:30:00,67.6,62.6,29.74,ENE,74,0.0,3.0,84,0.00,CLR,CLR,0.00,WeatherDisplay:10.37,2013-05-26 09:30:00,
2013-05-26 06:00:00,67.5,62.5,29.73,East,81,0.0,5.0,84,0.00,CLR,CLR,0.00,WeatherDisplay:10.37,2013-05-26 10:00:00,
2013-05-26 06:30:00,66.9,61.9,29.73,East,94,0.0,3.0,84,0.00,CLR,CLR,0.00,WeatherDisplay:10.37,2013-05-26 10:30:00,
2013-05-26 07:00:00,67.1,62.1,29.73,ESE,112,0.0,3.0,84,0.00,CLR,CLR,0.00,WeatherDisplay:10.37,2013-05-26 11:00:00,
2013-05-26 07:30:00,68.4,62.6,29.74,ENE,70,0.0,3.0,82,0.00,CLR,CLR,0.00,WeatherDisplay:10.37,2013-05-26 11:30:00,
2013-05-26 08:00:00,69.4,62.3,29.75,East,95,0.0,4.0,78,0.00,CLR,CLR,0.00,WeatherDisplay:10.37,2013-05-26 12:00:00,
2013-05-26 08:30:00,71.8,62.7,29.77,ENE,72,0.0,5.0,73,0.00,CLR,CLR,0.00,WeatherDisplay:10.37,2013-05-26 12:30:00,
2013-05-26 09:00:00,74.1,62.5,29.77,ESE,106,1.0,4.0,67,0.00,CLR,CLR,0.00,WeatherDisplay:10.37,2013-05-26 13:00:00,
2013-05-26 09:30:00,75.2,62.2,29.78,SE,135,0.0,6.0,64,0.00,CLR,CLR,0.00,WeatherDisplay:10.37,2013-05-26 13:30:00,
2013-05-26 10:00:00,76.6,61.7,29.78,East,90,3.0,6.0,60,0.00,CLR,CLR,0.00,WeatherDisplay:10.37,2013-05-26 14:00:00,
2013-05-26 10:30:00,79.0,62.4,29.78,NE,56,2.0,6.0,57,0.00,CLR,CLR,0.00,WeatherDisplay:10.37,2013-05-26 14:30:00,
2013-05-26 11:00:00,81.5,62.7,29.77,ENE,61,0.0,5.0,53,0.00,CLR,CLR,0.00,WeatherDisplay:10.37,2013-05-26 15:00:00,
2013-05-26 11:30:00,83.3,60.4,29.77,NNE,30,0.0,8.0,46,0.00,CLR,CLR,0.00,WeatherDisplay:10.37,2013-05-26 15:30:00,
2013-05-26 12:00:00,85.6,61.9,29.77,NNE,27,0.0,4.0,45,0.00,CLR,CLR,0.00,WeatherDisplay:10.37,2013-05-26 16:00:00,
2013-05-26 12:30:00,86.5,60.7,29.76,ENE,75,5.0,5.0,42,0.00,CLR,CLR,0.00,WeatherDisplay:10.37,2013-05-26 16:30:00,
2013-05-26 13:00:00,87.1,56.9,29.76,ESE,112,0.0,3.0,36,0.00,CLR,CLR,0.00,WeatherDisplay:10.37,2013-05-26 17:00:00,
2013-05-26 13:30:00,87.1,58.4,29.75,East,86,1.0,4.0,38,0.00,CLR,CLR,0.00,WeatherDisplay:10.37,2013-05-26 17:30:00,
2013-05-26 14:00:00,88.0,61.3,29.75,NNE,21,0.0,4.0,41,0.00,CLR,CLR,0.00,WeatherDisplay:10.37,2013-05-26 18:00:00,
2013-05-26 14:30:00,88.2,59.4,29.74,NE,36,0.0,7.0,38,0.00,CLR,CLR,0.00,WeatherDisplay:10.37,2013-05-26 18:30:00,
2013-05-26 15:00:00,87.4,58.0,29.73,East,95,6.0,6.0,37,0.00,CLR,CLR,0.00,WeatherDisplay:10.37,2013-05-26 19:00:00,
2013-05-26 15:30:00,86.4,59.9,29.72,ESE,103,2.0,3.0,41,0.00,CLR,CLR,0.00,WeatherDisplay:10.37,2013-05-26 19:30:00,
2013-05-26 16:00:00,87.4,58.7,29.71,SE,142,0.0,6.0,38,0.00,CLR,CLR,0.00,WeatherDisplay:10.37,2013-05-26 20:00:00,
2013-05-26 16:30:00,86.5,58.6,29.70,ESE,105,1.0,6.0,39,0.00,CLR,CLR,0.00,WeatherDisplay:10.37,2013-05-26 20:30:00,
2013-05-26 17:00:00,86.7,60.2,29.69,SE,143,0.0,3.0,41,0.00,CLR,CLR,0.00,WeatherDisplay:10.37,2013-05-26 21:00:00,
2013-05-26 17:30:00,87.1,56.9,29.69,ESE,112,1.0,5.0,36,0.00,CLR,CLR,0.00,WeatherDisplay:10.37,2013-05-26 21:30:00,
2013-05-26 18:00:00,86.2,56.9,29.68,East,84,0.0,5.0,37,0.00,CLR,CLR,0.00,WeatherDisplay:10.37,2013-05-26 22:00:00,
2013-05-26 18:30:00,84.9,56.5,29.68,NE,43,0.0,4.0,38,0.00,CLR,CLR,0.00,WeatherDisplay:10.37,2013-05-26 22:30:00,
2013-05-26 19:00:00,84.0,56.4,29.68,NE,51,0.0,7.0,39,0.00,CLR,CLR,0.00,WeatherDisplay:10.37,2013-05-26 23:00:00,
2013-05-26 19:30:00,83.5,57.3,29.68,ENE,68,0.0,4.0,41,0.00,CLR,CLR,0.00,WeatherDisplay:10.37,2013-05-26 23:30:00,
2013-05-26 20:00:00,82.0,57.3,29.69,NE,45,0.0,2.0,43,0.00,CLR,CLR,0.00,WeatherDisplay:10.37,2013-05-27 00:00:00,
2013-05-26 20:30:00,80.4,58.3,29.69,NE,50,0.0,0.0,47,0.00,CLR,CLR,0.00,WeatherDisplay:10.37,2013-05-27 00:30:00,
2013-05-26 21:00:00,78.6,59.0,29.70,NE,45,0.0,0.0,51,0.00,CLR,CLR,0.00,WeatherDisplay:10.37,2013-05-27 01:00:00,
2013-05-26 21:30:00,77.5,59.6,29.70,ESE,109,1.0,3.0,54,0.00,CLR,CLR,0.00,WeatherDisplay:10.37,2013-05-27 01:30:00,
2013-05-26 22:00:00,76.8,60.9,29.71,East,98,0.0,4.0,58,0.00,CLR,CLR,0.00,WeatherDisplay:10.37,2013-05-27 02:00:00,
2013-05-26 22:30:00,75.9,61.5,29.73,East,96,3.0,3.0,61,0.00,CLR,CLR,0.00,WeatherDisplay:10.37,2013-05-27 02:30:00,
2013-05-26 23:00:00,75.0,62.5,29.74,East,98,1.0,6.0,65,0.00,CLR,CLR,0.00,WeatherDisplay:10.37,2013-05-27 03:00:00,
2013-05-26 23:30:00,74.1,62.9,29.75,East,99,0.0,6.0,68,0.00,CLR,CLR,0.00,WeatherDisplay:10.37,2013-05-27 03:30:00,